Time;durP1;ratioP1;P1;durP2;ratioP2;P2;SDS_P1;SDS_P2;PMS_P1;PMS_P2;Temp;Humidity;BMP_temperature;BMP_pressure;BME280_temperature;BME280_humidity;BME280_pressure;Samples;Min_cycle;Max_cycle;Signal;HPM_P1;HPM_P2
2023/05/07 00:02:58;;;;;;;2.08;1.60;;;17.90;70.50;;;;;;10364799;28;20136;-58
2023/05/07 00:07:58;;;;;;;1.95;1.70;;;17.80;70.50;;;;;;10364323;28;20069;-57
2023/05/07 00:13:00;;;;;;;2.53;1.60;;;17.80;70.50;;;;;;10364275;28;20029;-55
2023/05/07 00:18:00;;;;;;;3.88;1.58;;;17.80;70.50;;;;;;10365604;28;20030;-57
2023/05/07 00:23:01;;;;;;;1.90;1.25;;;17.80;70.60;;;;;;10354567;28;20477;-56
2023/05/07 00:28:03;;;;;;;2.67;1.52;;;17.90;70.60;;;;;;10377049;28;20057;-56
2023/05/07 00:33:04;;;;;;;2.58;1.38;;;17.90;70.60;;;;;;10375000;28;20033;-58
2023/05/07 00:38:05;;;;;;;2.92;1.60;;;17.80;70.50;;;;;;10363707;28;20034;-57
2023/05/07 00:43:06;;;;;;;2.47;1.48;;;17.80;70.50;;;;;;10364347;28;20018;-57
2023/05/07 00:48:07;;;;;;;1.95;1.35;;;17.90;70.50;;;;;;10363311;28;20041;-56
2023/05/07 00:53:08;;;;;;;3.10;2.10;;;17.90;70.50;;;;;;10363787;28;20488;-57
2023/05/07 00:58:09;;;;;;;3.03;1.77;;;17.80;70.50;;;;;;10364381;28;20632;-57
2023/05/07 01:03:09;;;;;;;2.85;1.73;;;17.80;70.50;;;;;;10346180;28;20038;-57
2023/05/07 01:08:10;;;;;;;1.80;1.30;;;17.80;70.50;;;;;;10364270;28;20105;-54
2023/05/07 01:13:14;;;;;;;2.08;1.35;;;17.80;70.50;;;;;;10362497;28;20525;-57
2023/05/07 01:18:15;;;;;;;2.65;1.63;;;17.80;70.60;;;;;;10362378;28;20486;-57
2023/05/07 01:23:16;;;;;;;2.30;1.45;;;17.80;70.60;;;;;;10378075;28;20022;-57
2023/05/07 01:28:16;;;;;;;2.45;1.58;;;17.70;70.60;;;;;;10335726;28;20014;-57
2023/05/07 01:33:24;;;;;;;2.38;1.40;;;17.70;70.50;;;;;;10373386;28;20125;-55
2023/05/07 01:38:25;;;;;;;2.35;1.50;;;17.80;71.20;;;;;;10362109;28;20030;-55
2023/05/07 01:43:25;;;;;;;1.60;1.35;;;17.70;70.50;;;;;;10362344;28;20369;-56
2023/05/07 01:48:27;;;;;;;2.05;1.50;;;17.70;71.10;;;;;;10345505;28;20036;-57
2023/05/07 01:53:28;;;;;;;1.98;1.33;;;17.80;70.60;;;;;;10361897;28;20030;-57
2023/05/07 01:58:29;;;;;;;3.35;1.75;;;17.80;70.60;;;;;;10361746;28;20041;-57
2023/05/07 02:03:30;;;;;;;2.30;1.40;;;17.70;70.50;;;;;;10361571;28;20390;-57
2023/05/07 02:08:31;;;;;;;2.03;1.48;;;17.70;70.50;;;;;;10366925;28;20030;-56
2023/05/07 02:13:34;;;;;;;1.92;1.35;;;17.70;70.50;;;;;;10385786;28;20034;-59
2023/05/07 02:18:35;;;;;;;2.50;1.65;;;17.70;70.40;;;;;;10368312;28;20038;-57
2023/05/07 02:23:36;;;;;;;1.88;1.42;;;17.70;70.40;;;;;;10370193;28;20021;-57
2023/05/07 02:28:37;;;;;;;2.22;1.55;;;17.70;70.40;;;;;;10368155;28;20024;-57
2023/05/07 02:33:37;;;;;;;1.98;1.25;;;17.70;70.50;;;;;;10379584;28;20026;-58
2023/05/07 02:38:38;;;;;;;1.67;1.40;;;17.70;70.50;;;;;;10367603;28;20532;-58
2023/05/07 02:43:39;;;;;;;1.60;1.27;;;17.70;70.50;;;;;;10367923;28;20415;-56
2023/05/07 02:48:39;;;;;;;1.40;1.08;;;17.70;70.50;;;;;;10351406;28;20118;-57
2023/05/07 02:53:40;;;;;;;3.42;1.83;;;17.70;70.50;;;;;;10354560;28;20529;-56
2023/05/07 02:58:43;;;;;;;3.13;1.48;;;17.70;70.50;;;;;;10367158;28;20059;-55
2023/05/07 03:03:44;;;;;;;2.00;1.20;;;17.70;70.50;;;;;;10367153;28;20050;-57
2023/05/07 03:08:45;;;;;;;2.40;1.48;;;17.70;70.50;;;;;;10367866;28;20026;-56
2023/05/07 03:13:48;;;;;;;2.20;1.30;;;17.70;70.50;;;;;;10366784;28;20050;-57
2023/05/07 03:18:49;;;;;;;2.13;1.63;;;17.70;70.50;;;;;;10365710;28;20391;-57
2023/05/07 03:23:50;;;;;;;2.05;1.50;;;17.60;70.50;;;;;;10366819;28;20156;-56
2023/05/07 03:28:51;;;;;;;3.00;1.80;;;17.60;70.50;;;;;;10367453;28;20122;-55
2023/05/07 03:33:53;;;;;;;1.70;1.20;;;17.60;70.50;;;;;;10377975;28;20037;-57
2023/05/07 03:38:54;;;;;;;3.45;1.30;;;17.60;70.50;;;;;;10365722;28;20026;-57
2023/05/07 03:43:55;;;;;;;2.05;1.23;;;17.70;70.50;;;;;;10363514;28;20109;-55
2023/05/07 03:48:56;;;;;;;3.78;1.77;;;17.60;70.50;;;;;;10366521;28;20022;-57
2023/05/07 03:53:57;;;;;;;2.10;1.55;;;17.60;70.40;;;;;;10362363;28;20101;-57
2023/05/07 03:58:57;;;;;;;3.05;1.70;;;17.60;70.50;;;;;;10334466;28;20056;-57
2023/05/07 04:03:58;;;;;;;1.33;1.20;;;17.60;70.50;;;;;;10355034;28;20060;-57
2023/05/07 04:08:59;;;;;;;1.67;1.25;;;17.60;71.10;;;;;;10344284;28;20022;-56
2023/05/07 04:14:00;;;;;;;1.48;1.35;;;17.60;70.40;;;;;;10363454;28;20468;-55
2023/05/07 04:19:00;;;;;;;2.42;1.20;;;17.60;70.50;;;;;;10363600;28;20065;-54
2023/05/07 04:24:03;;;;;;;2.67;1.63;;;17.60;70.50;;;;;;10362526;28;20148;-57
2023/05/07 04:29:04;;;;;;;3.10;2.00;;;17.60;70.50;;;;;;10356789;28;20054;-57
2023/05/07 04:34:05;;;;;;;2.03;1.50;;;17.60;70.50;;;;;;10368331;28;20544;-55
2023/05/07 04:39:06;;;;;;;1.98;1.27;;;17.60;70.50;;;;;;10360800;28;20129;-55
2023/05/07 04:44:09;;;;;;;2.58;1.60;;;17.60;70.50;;;;;;10345137;28;20022;-55
2023/05/07 04:49:11;;;;;;;2.60;1.70;;;17.60;70.50;;;;;;10361108;28;20057;-55
2023/05/07 04:54:11;;;;;;;2.15;1.50;;;17.60;70.50;;;;;;10360293;28;20474;-57
2023/05/07 04:59:12;;;;;;;2.20;1.58;;;17.60;70.50;;;;;;10364866;28;20088;-57
2023/05/07 05:04:13;;;;;;;1.98;1.50;;;17.60;70.50;;;;;;10362505;28;20066;-57
2023/05/07 05:09:14;;;;;;;2.95;1.80;;;17.60;70.50;;;;;;10341699;28;20477;-56
2023/05/07 05:14:15;;;;;;;2.45;2.08;;;17.60;70.50;;;;;;10338575;28;20088;-56
2023/05/07 05:19:16;;;;;;;3.53;1.85;;;17.50;70.60;;;;;;10360841;28;20212;-54
2023/05/07 05:24:16;;;;;;;3.63;2.35;;;17.60;70.70;;;;;;10360236;28;20026;-57
2023/05/07 05:29:17;;;;;;;4.32;3.03;;;17.60;71.60;;;;;;10360649;28;20014;-57
2023/05/07 05:34:19;;;;;;;5.65;3.05;;;17.70;71.30;;;;;;10371198;28;20022;-57
2023/05/07 05:39:21;;;;;;;7.70;3.45;;;17.70;72.00;;;;;;10361898;28;20613;-56
2023/05/07 05:44:21;;;;;;;6.05;3.22;;;17.80;71.00;;;;;;10355493;28;20102;-56
2023/05/07 05:49:22;;;;;;;14.40;4.70;;;18.00;71.80;;;;;;10369822;28;20033;-55
2023/05/07 05:54:23;;;;;;;10.95;3.88;;;18.00;71.70;;;;;;10344682;28;20059;-51
2023/05/07 05:59:24;;;;;;;8.27;3.85;;;18.00;72.00;;;;;;10368050;28;20444;-57
2023/05/07 06:04:25;;;;;;;19.92;5.13;;;17.90;71.80;;;;;;10348818;28;20046;-55
2023/05/07 06:09:25;;;;;;;15.40;4.90;;;18.00;72.30;;;;;;10366947;28;20465;-55
2023/05/07 06:14:26;;;;;;;20.23;4.78;;;18.10;72.10;;;;;;10359943;28;20108;-55
2023/05/07 06:19:28;;;;;;;15.45;4.97;;;18.10;72.40;;;;;;10383033;28;20380;-55
2023/05/07 06:24:28;;;;;;;17.88;4.78;;;18.10;72.10;;;;;;10361794;28;20053;-56
2023/05/07 06:29:31;;;;;;;14.23;5.22;;;18.10;72.40;;;;;;10349514;28;20022;-54
2023/05/07 06:34:32;;;;;;;19.05;4.75;;;18.10;72.60;;;;;;10362076;28;20014;-56
2023/05/07 06:39:33;;;;;;;16.02;4.68;;;18.10;72.50;;;;;;10377393;28;20554;-55
2023/05/07 06:44:34;;;;;;;15.38;5.00;;;18.20;72.30;;;;;;10374978;28;20026;-57
2023/05/07 06:49:34;;;;;;;12.30;4.13;;;18.20;72.50;;;;;;10368844;28;20587;-56
2023/05/07 06:54:35;;;;;;;16.27;4.43;;;18.20;72.40;;;;;;10366756;28;20111;-56
2023/05/07 06:59:36;;;;;;;10.88;4.13;;;18.20;72.50;;;;;;10343957;28;20032;-57
2023/05/07 07:04:37;;;;;;;31.38;6.22;;;18.10;72.50;;;;;;10367446;28;20072;-55
2023/05/07 07:09:37;;;;;;;28.23;5.80;;;18.10;72.60;;;;;;10363105;28;20483;-56
2023/05/07 07:14:38;;;;;;;18.67;4.78;;;18.10;72.80;;;;;;10362459;28;20018;-56
2023/05/07 07:19:39;;;;;;;19.83;4.47;;;18.20;72.60;;;;;;10362487;28;20474;-58
2023/05/07 07:24:40;;;;;;;40.58;7.43;;;18.20;72.50;;;;;;10348063;28;20254;-53
2023/05/07 07:29:40;;;;;;;24.63;6.90;;;18.20;72.70;;;;;;10359549;28;20034;-56
2023/05/07 07:34:41;;;;;;;20.30;4.85;;;18.10;72.80;;;;;;10367364;28;20034;-54
2023/05/07 07:39:42;;;;;;;14.70;4.25;;;18.10;72.80;;;;;;10363529;28;20033;-54
2023/05/07 07:44:42;;;;;;;19.85;5.20;;;18.00;72.90;;;;;;10347173;28;20454;-55
2023/05/07 07:49:43;;;;;;;9.52;4.70;;;18.00;72.90;;;;;;10338035;28;20124;-57
2023/05/07 07:54:44;;;;;;;10.25;4.15;;;18.00;72.80;;;;;;10362903;28;20492;-55
2023/05/07 07:59:45;;;;;;;12.65;4.22;;;18.00;72.80;;;;;;10346550;28;20033;-56
2023/05/07 08:04:46;;;;;;;12.25;4.75;;;17.90;72.80;;;;;;10363878;28;20133;-55
2023/05/07 08:09:47;;;;;;;10.40;4.03;;;17.90;72.80;;;;;;10362055;28;20029;-56
2023/05/07 08:14:48;;;;;;;8.07;3.75;;;17.90;73.30;;;;;;10362280;28;20021;-55
2023/05/07 08:19:49;;;;;;;10.02;4.45;;;18.00;72.70;;;;;;10363404;28;20065;-54
2023/05/07 08:24:49;;;;;;;11.13;3.83;;;17.90;72.60;;;;;;10349193;28;20114;-55
2023/05/07 08:29:50;;;;;;;9.00;4.53;;;18.00;72.70;;;;;;10350236;28;20120;-54
2023/05/07 08:34:51;;;;;;;10.48;4.35;;;18.00;72.60;;;;;;10373331;28;20025;-55
2023/05/07 08:39:51;;;;;;;14.95;5.22;;;18.00;72.50;;;;;;10360697;28;20048;-55
2023/05/07 08:44:59;;;;;;;14.65;4.88;;;18.00;72.30;;;;;;10361653;28;20103;-55
2023/05/07 08:50:02;;;;;;;6.90;3.92;;;18.00;72.40;;;;;;10362354;28;20025;-56
2023/05/07 08:55:03;;;;;;;11.73;4.30;;;18.00;72.30;;;;;;10361052;28;20227;-56
2023/05/07 09:00:06;;;;;;;9.10;3.45;;;18.10;72.30;;;;;;10359861;28;20121;-57
2023/05/07 09:05:08;;;;;;;4.97;3.08;;;18.00;72.80;;;;;;10364044;28;20042;-57
2023/05/07 09:10:09;;;;;;;12.27;3.58;;;18.10;73.40;;;;;;10362482;28;20406;-57
2023/05/07 09:15:10;;;;;;;7.03;3.75;;;18.20;73.90;;;;;;10362114;28;20050;-56
2023/05/07 09:20:11;;;;;;;8.35;3.58;;;18.30;73.60;;;;;;10354161;28;20034;-54
2023/05/07 09:25:11;;;;;;;7.93;4.15;;;18.30;72.50;;;;;;10343221;28;20014;-56
2023/05/07 09:30:12;;;;;;;7.65;3.70;;;18.20;72.50;;;;;;10361168;28;20021;-56
2023/05/07 09:35:17;;;;;;;7.05;3.78;;;18.20;73.10;;;;;;10360942;28;20121;-56
2023/05/07 09:40:27;;;;;;;13.48;5.40;;;18.20;73.40;;;;;;10350060;28;20030;-56
2023/05/07 09:45:29;;;;;;;9.77;4.15;;;18.30;72.60;;;;;;10358037;28;20450;-55
2023/05/07 09:50:45;;;;;;;7.43;3.83;;;18.30;74.10;;;;;;10360394;28;20437;-57
2023/05/07 09:55:46;;;;;;;7.20;3.92;;;18.40;74.10;;;;;;10343740;28;20014;-55
2023/05/07 10:00:49;;;;;;;8.07;3.97;;;18.50;74.00;;;;;;10358894;28;20037;-56
2023/05/07 10:05:51;;;;;;;8.93;3.88;;;18.50;73.80;;;;;;10359589;28;20041;-55
2023/05/07 10:10:52;;;;;;;8.40;4.32;;;18.50;73.60;;;;;;10341672;28;20037;-56
2023/05/07 10:15:53;;;;;;;10.68;3.50;;;18.40;72.40;;;;;;10359201;28;20025;-58
2023/05/07 10:20:59;;;;;;;6.82;3.42;;;18.30;72.50;;;;;;10358261;28;20026;-55
2023/05/07 10:26:05;;;;;;;7.55;4.18;;;18.40;73.60;;;;;;10341441;28;20497;-55
2023/05/07 10:31:48;;;;;;;10.05;3.72;;;18.40;72.70;;;;;;10365448;28;20025;-56
2023/05/07 10:36:50;;;;;;;9.27;3.70;;;18.30;72.70;;;;;;10356461;28;20042;-55
2023/05/07 10:41:51;;;;;;;14.23;4.35;;;18.40;73.10;;;;;;10345199;28;20076;-56
2023/05/07 10:47:09;;;;;;;9.95;4.60;;;18.40;73.10;;;;;;10366572;28;20512;-54
2023/05/07 10:52:25;;;;;;;11.27;4.50;;;18.40;73.40;;;;;;10367696;28;20061;-55
2023/05/07 10:57:35;;;;;;;10.43;4.32;;;18.40;73.50;;;;;;10364826;28;20109;-56
2023/05/07 11:03:01;;;;;;;8.32;3.85;;;18.50;73.40;;;;;;10365685;28;20022;-55
2023/05/07 11:08:03;;;;;;;8.77;4.10;;;18.50;73.20;;;;;;10365200;28;20018;-54
2023/05/07 11:13:05;;;;;;;10.10;3.92;;;18.50;73.00;;;;;;10366563;28;20021;-56
2023/05/07 11:18:06;;;;;;;7.93;4.55;;;18.50;73.10;;;;;;10366100;28;20839;-53
2023/05/07 11:23:07;;;;;;;6.82;4.13;;;18.50;73.00;;;;;;10363989;28;20099;-55
2023/05/07 11:28:11;;;;;;;11.90;4.32;;;18.60;72.80;;;;;;10336524;28;20176;-56
2023/05/07 11:33:12;;;;;;;7.82;4.28;;;18.60;72.70;;;;;;10364702;28;20084;-56
2023/05/07 11:38:13;;;;;;;9.60;4.55;;;18.60;72.80;;;;;;10363515;28;20092;-57
2023/05/07 11:43:14;;;;;;;10.82;5.63;;;18.60;72.80;;;;;;10363796;28;20014;-56
2023/05/07 11:48:16;;;;;;;6.88;4.53;;;18.60;72.80;;;;;;10363137;28;20054;-54
2023/05/07 11:53:17;;;;;;;13.00;6.00;;;18.70;72.60;;;;;;10364307;28;20020;-55
2023/05/07 11:58:23;;;;;;;9.32;5.13;;;18.70;72.80;;;;;;10361605;28;20030;-56
2023/05/07 12:03:23;;;;;;;8.68;4.78;;;18.60;72.90;;;;;;10360415;28;20087;-56
2023/05/07 12:08:24;;;;;;;12.20;5.38;;;18.60;73.10;;;;;;10360342;28;20037;-55
2023/05/07 12:13:26;;;;;;;11.95;5.25;;;18.60;73.00;;;;;;10373127;28;20022;-56
2023/05/07 12:18:27;;;;;;;9.68;5.07;;;18.60;73.00;;;;;;10344602;28;20069;-57
2023/05/07 12:23:29;;;;;;;9.27;5.18;;;18.60;73.00;;;;;;10333330;28;20109;-55
2023/05/07 12:28:30;;;;;;;19.05;5.80;;;18.60;72.90;;;;;;10361313;28;20018;-57
2023/05/07 12:33:32;;;;;;;9.07;4.75;;;18.60;72.90;;;;;;10362971;28;20418;-56
2023/05/07 12:38:38;;;;;;;9.50;4.60;;;18.60;72.80;;;;;;10362397;28;20521;-57
2023/05/07 12:43:39;;;;;;;8.65;4.45;;;18.60;72.80;;;;;;10340819;28;20034;-55
2023/05/07 12:48:46;;;;;;;8.15;5.13;;;18.60;72.80;;;;;;10377859;28;20026;-55
2023/05/07 12:53:47;;;;;;;7.22;4.95;;;18.60;72.70;;;;;;10360495;28;20389;-55
2023/05/07 12:58:49;;;;;;;8.68;4.60;;;18.70;72.60;;;;;;10360569;28;20121;-56
2023/05/07 13:03:52;;;;;;;8.38;4.30;;;18.60;72.60;;;;;;10361460;28;20508;-56
2023/05/07 13:08:53;;;;;;;10.60;5.72;;;18.60;72.50;;;;;;10360201;28;20026;-55
2023/05/07 13:13:54;;;;;;;7.90;5.28;;;18.60;72.60;;;;;;10360870;28;20034;-56
2023/05/07 13:18:54;;;;;;;6.63;4.15;;;18.60;72.60;;;;;;10360746;28;20061;-57
2023/05/07 13:23:55;;;;;;;8.00;5.20;;;18.60;72.50;;;;;;10347243;28;20363;-54
2023/05/07 13:28:56;;;;;;;7.82;6.28;;;18.60;72.40;;;;;;10361733;28;20780;-54
2023/05/07 13:33:56;;;;;;;7.60;4.30;;;18.60;72.40;;;;;;10362057;28;20122;-54
2023/05/07 13:38:59;;;;;;;9.00;4.90;;;18.60;72.40;;;;;;10360757;28;20375;-55
2023/05/07 13:44:00;;;;;;;6.70;5.28;;;18.70;72.40;;;;;;10360509;28;20030;-56
2023/05/07 13:49:00;;;;;;;6.38;4.82;;;18.70;72.30;;;;;;10360141;28;20110;-56
2023/05/07 13:54:01;;;;;;;6.22;4.72;;;18.70;72.30;;;;;;10360192;28;20113;-57
2023/05/07 13:59:02;;;;;;;8.25;5.00;;;18.70;72.10;;;;;;10361588;28;20129;-55
2023/05/07 14:04:03;;;;;;;7.05;4.97;;;18.70;72.10;;;;;;10365824;28;20042;-55
2023/05/07 14:09:03;;;;;;;5.07;4.32;;;18.70;72.20;;;;;;10366654;28;20038;-55
2023/05/07 14:14:04;;;;;;;6.05;4.30;;;18.70;72.20;;;;;;10368468;28;20134;-56
2023/05/07 14:19:05;;;;;;;5.20;4.68;;;18.70;72.20;;;;;;10368110;28;20042;-55
2023/05/07 14:24:08;;;;;;;9.25;4.35;;;18.70;72.20;;;;;;10355314;28;20029;-55
2023/05/07 14:29:08;;;;;;;5.53;4.82;;;18.70;72.20;;;;;;10366708;28;20024;-55
2023/05/07 14:34:09;;;;;;;10.57;5.53;;;18.70;72.20;;;;;;10368287;28;20018;-57
2023/05/07 14:39:10;;;;;;;5.55;4.82;;;18.70;72.10;;;;;;10367722;28;20116;-56
2023/05/07 14:44:11;;;;;;;5.68;4.43;;;18.70;72.20;;;;;;10349552;28;20034;-57
2023/05/07 14:49:16;;;;;;;6.00;4.57;;;18.70;72.20;;;;;;10367150;28;20034;-55
2023/05/07 14:54:17;;;;;;;5.07;4.40;;;18.70;72.20;;;;;;10365737;28;20053;-57
2023/05/07 14:59:20;;;;;;;8.07;5.50;;;18.60;72.20;;;;;;10365974;28;20421;-57
2023/05/07 15:04:21;;;;;;;6.70;4.65;;;18.60;72.20;;;;;;10365119;28;20034;-56
2023/05/07 15:09:22;;;;;;;5.35;4.63;;;18.60;72.20;;;;;;10366470;28;20021;-55
2023/05/07 15:14:22;;;;;;;5.40;4.35;;;18.60;72.20;;;;;;10365242;28;20025;-56
2023/05/07 15:19:28;;;;;;;6.15;5.13;;;18.60;72.20;;;;;;10366688;28;20042;-55
2023/05/07 15:24:32;;;;;;;6.07;4.88;;;18.60;72.20;;;;;;10364639;28;20030;-57
2023/05/07 15:29:32;;;;;;;7.00;4.40;;;18.60;72.20;;;;;;10364015;28;20033;-56
2023/05/07 15:34:33;;;;;;;5.68;4.32;;;18.60;72.30;;;;;;10364129;28;20481;-54
2023/05/07 15:39:34;;;;;;;4.82;4.20;;;18.60;72.20;;;;;;10364175;28;20519;-55
2023/05/07 15:44:35;;;;;;;4.32;3.90;;;18.60;72.20;;;;;;10364113;28;20192;-55
2023/05/07 15:49:36;;;;;;;4.80;3.95;;;18.60;72.20;;;;;;10363816;28;20168;-56
2023/05/07 15:54:39;;;;;;;5.68;4.13;;;18.50;72.20;;;;;;10364110;28;20026;-57
2023/05/07 15:59:41;;;;;;;4.85;3.70;;;18.50;72.90;;;;;;10363855;28;20022;-56
2023/05/07 16:04:41;;;;;;;4.10;3.70;;;18.50;72.30;;;;;;10363134;28;20097;-56
2023/05/07 16:09:42;;;;;;;3.97;3.58;;;18.50;72.40;;;;;;10373725;28;20091;-55
2023/05/07 16:14:43;;;;;;;6.25;3.40;;;18.40;72.30;;;;;;10362152;28;20050;-54
2023/05/07 16:19:43;;;;;;;4.30;3.90;;;18.40;72.40;;;;;;10359768;28;20030;-54
2023/05/07 16:24:45;;;;;;;4.97;3.80;;;18.40;72.50;;;;;;10362473;28;20097;-56
2023/05/07 16:29:45;;;;;;;4.80;3.33;;;18.40;72.50;;;;;;10361655;28;20408;-55
2023/05/07 16:34:46;;;;;;;5.00;4.05;;;18.40;72.60;;;;;;10365293;28;20026;-57
2023/05/07 16:39:46;;;;;;;6.43;3.78;;;18.40;72.60;;;;;;10345721;28;20109;-56
2023/05/07 16:44:47;;;;;;;4.43;3.13;;;18.40;72.70;;;;;;10361351;28;20022;-56
2023/05/07 16:49:49;;;;;;;4.35;3.80;;;18.40;72.80;;;;;;10363131;28;20030;-57
2023/05/07 16:54:49;;;;;;;4.53;3.15;;;18.30;72.70;;;;;;10361014;28;20034;-56
2023/05/07 16:59:51;;;;;;;4.00;3.53;;;18.30;72.70;;;;;;10344121;28;20164;-56
2023/05/07 17:04:52;;;;;;;7.70;3.03;;;18.30;72.80;;;;;;10362417;28;20054;-56
2023/05/07 17:09:52;;;;;;;3.97;3.30;;;18.30;72.80;;;;;;10344233;28;20030;-56
2023/05/07 17:14:53;;;;;;;4.22;2.30;;;18.30;72.80;;;;;;10361878;28;20033;-54
2023/05/07 17:19:54;;;;;;;3.80;3.00;;;18.40;72.90;;;;;;10344615;28;20739;-57
2023/05/07 17:24:54;;;;;;;3.40;3.10;;;18.30;72.80;;;;;;10353995;28;20032;-57
2023/05/07 17:29:55;;;;;;;4.15;2.72;;;18.30;72.90;;;;;;10359405;28;20022;-57
2023/05/07 17:34:56;;;;;;;3.97;2.97;;;18.30;73.00;;;;;;10363402;28;20130;-57
2023/05/07 17:39:57;;;;;;;5.65;3.08;;;18.30;73.00;;;;;;10369394;28;20037;-56
2023/05/07 17:44:57;;;;;;;8.55;3.38;;;18.30;72.90;;;;;;10361271;28;20026;-56
2023/05/07 17:49:58;;;;;;;5.85;3.67;;;18.30;73.20;;;;;;10366187;28;20135;-57
2023/05/07 17:54:59;;;;;;;4.63;2.83;;;18.30;73.20;;;;;;10368842;28;20396;-56
2023/05/07 18:00:01;;;;;;;7.47;3.25;;;18.30;73.10;;;;;;10370212;28;20950;-55
2023/05/07 18:05:02;;;;;;;4.25;3.08;;;18.30;73.00;;;;;;10369931;28;20557;-56
2023/05/07 18:10:03;;;;;;;14.70;3.65;;;18.30;73.10;;;;;;10367732;28;20109;-52
2023/05/07 18:15:05;;;;;;;7.07;3.50;;;18.30;73.30;;;;;;10352504;28;20053;-52
2023/05/07 18:20:10;;;;;;;8.38;3.05;;;18.30;73.10;;;;;;10347325;28;20044;-54
2023/05/07 18:25:10;;;;;;;11.90;4.40;;;18.40;73.00;;;;;;10357587;28;20049;-51
2023/05/07 18:30:11;;;;;;;7.75;3.50;;;18.30;73.10;;;;;;10368888;28;20114;-54
2023/05/07 18:35:12;;;;;;;12.18;3.58;;;18.30;72.90;;;;;;10351461;28;20048;-54
2023/05/07 18:40:13;;;;;;;8.18;3.80;;;18.40;73.20;;;;;;10367511;28;20129;-52
2023/05/07 18:45:14;;;;;;;9.68;4.00;;;18.40;73.20;;;;;;10349913;28;20014;-53
2023/05/07 18:50:15;;;;;;;5.28;3.03;;;18.40;73.50;;;;;;10367125;28;20461;-52
2023/05/07 18:55:16;;;;;;;5.72;3.75;;;18.30;73.20;;;;;;10367484;28;20024;-54
2023/05/07 19:00:16;;;;;;;5.55;3.30;;;18.40;73.30;;;;;;10366996;28;20033;-54
2023/05/07 19:05:17;;;;;;;7.30;3.13;;;18.30;73.20;;;;;;10358018;28;20042;-54
2023/05/07 19:10:18;;;;;;;4.07;2.97;;;18.30;73.20;;;;;;10371646;28;20084;-54
2023/05/07 19:15:19;;;;;;;5.05;3.22;;;18.30;73.30;;;;;;10368707;28;20036;-53
2023/05/07 19:20:20;;;;;;;5.70;3.50;;;18.30;73.30;;;;;;10366921;28;20404;-52
2023/05/07 19:25:21;;;;;;;7.55;3.40;;;18.30;73.40;;;;;;10355072;28;20025;-53
2023/05/07 19:30:22;;;;;;;3.95;3.00;;;18.20;73.30;;;;;;10352773;28;20034;-55
2023/05/07 19:35:22;;;;;;;4.57;3.08;;;18.20;73.30;;;;;;10376773;28;20030;-56
2023/05/07 19:40:23;;;;;;;6.72;2.90;;;18.20;73.20;;;;;;10382135;28;20428;-55
2023/05/07 19:45:24;;;;;;;4.00;3.13;;;18.20;73.20;;;;;;10366042;28;20626;-55
2023/05/07 19:50:25;;;;;;;4.13;2.65;;;18.20;73.20;;;;;;10365903;28;20504;-54
2023/05/07 19:55:25;;;;;;;2.97;2.45;;;18.20;73.20;;;;;;10365205;28;20028;-56
2023/05/07 20:00:30;;;;;;;4.00;2.30;;;18.20;73.20;;;;;;10364459;28;20034;-54
2023/05/07 20:05:31;;;;;;;8.45;3.13;;;18.20;73.30;;;;;;10364593;28;20473;-54
2023/05/07 20:10:31;;;;;;;3.95;2.80;;;18.20;73.30;;;;;;10364827;28;20283;-52
2023/05/07 20:15:34;;;;;;;3.20;2.83;;;18.20;73.30;;;;;;10366314;28;20064;-53
2023/05/07 20:20:35;;;;;;;3.70;2.85;;;18.20;73.30;;;;;;10364864;28;20034;-54
2023/05/07 20:25:36;;;;;;;6.32;3.00;;;18.20;73.20;;;;;;10365622;28;20014;-55
2023/05/07 20:30:37;;;;;;;3.60;2.58;;;18.20;73.20;;;;;;10370198;28;20446;-51
2023/05/07 20:35:37;;;;;;;3.45;2.50;;;18.20;73.20;;;;;;10350962;28;20026;-55
2023/05/07 20:40:40;;;;;;;3.80;2.67;;;18.20;73.10;;;;;;10364185;28;20026;-55
2023/05/07 20:45:41;;;;;;;3.55;2.28;;;18.20;73.10;;;;;;10364468;28;20427;-55
2023/05/07 20:50:41;;;;;;;3.30;2.50;;;18.10;73.10;;;;;;10365241;28;20481;-55
2023/05/07 20:55:42;;;;;;;3.83;2.25;;;18.10;73.00;;;;;;10365222;28;20025;-53
2023/05/07 21:00:43;;;;;;;2.90;2.13;;;18.20;73.10;;;;;;10363206;28;20022;-54
2023/05/07 21:05:54;;;;;;;2.50;2.28;;;18.20;73.10;;;;;;10364371;28;20050;-54
2023/05/07 21:10:55;;;;;;;4.65;2.83;;;18.20;73.10;;;;;;10362805;28;20526;-55
2023/05/07 21:15:55;;;;;;;3.92;2.88;;;18.10;73.00;;;;;;10379421;28;20025;-53
2023/05/07 21:20:56;;;;;;;4.15;2.85;;;18.10;73.00;;;;;;10364298;28;20167;-54
2023/05/07 21:25:57;;;;;;;3.03;2.33;;;18.10;73.00;;;;;;10362955;28;20600;-54
2023/05/07 21:30:58;;;;;;;4.28;2.63;;;18.10;72.90;;;;;;10371639;28;20022;-53
2023/05/07 21:35:58;;;;;;;3.30;2.38;;;18.10;73.00;;;;;;10366904;28;20017;-53
2023/05/07 21:40:59;;;;;;;3.13;2.33;;;18.10;73.00;;;;;;10363854;28;20034;-54
2023/05/07 21:46:02;;;;;;;3.33;3.03;;;18.10;73.00;;;;;;10363584;28;20037;-55
2023/05/07 21:51:06;;;;;;;3.10;2.70;;;18.10;73.10;;;;;;10362209;28;20472;-55
2023/05/07 21:56:06;;;;;;;3.03;2.45;;;18.10;73.10;;;;;;10362521;28;20057;-53
2023/05/07 22:01:11;;;;;;;3.63;2.92;;;18.10;73.00;;;;;;10362378;28;20418;-55
2023/05/07 22:06:11;;;;;;;3.08;2.63;;;18.10;73.00;;;;;;10363345;28;20046;-56
2023/05/07 22:11:12;;;;;;;4.10;2.70;;;18.10;73.00;;;;;;10345895;28;20097;-53
2023/05/07 22:16:13;;;;;;;6.68;3.28;;;18.10;73.00;;;;;;10362123;28;20033;-55
2023/05/07 22:21:14;;;;;;;2.25;2.05;;;18.10;73.00;;;;;;10363173;28;20034;-53
2023/05/07 22:26:15;;;;;;;3.22;2.55;;;18.10;73.00;;;;;;10370545;28;20032;-53
2023/05/07 22:31:15;;;;;;;2.75;2.38;;;18.10;73.00;;;;;;10378857;28;20112;-55
2023/05/07 22:36:16;;;;;;;3.33;2.63;;;18.10;73.00;;;;;;10370459;28;20020;-54
2023/05/07 22:41:17;;;;;;;5.50;2.83;;;18.10;73.00;;;;;;10368593;28;20476;-55
2023/05/07 22:46:17;;;;;;;3.58;2.17;;;18.00;73.50;;;;;;10368497;28;20457;-53
2023/05/07 22:51:18;;;;;;;3.45;2.63;;;18.10;73.00;;;;;;10368427;28;20032;-54
2023/05/07 22:56:19;;;;;;;3.40;2.78;;;18.00;72.90;;;;;;10368236;28;20369;-54
2023/05/07 23:01:20;;;;;;;3.10;2.50;;;18.00;73.00;;;;;;10367606;28;20530;-54
2023/05/07 23:06:20;;;;;;;2.55;2.05;;;18.10;73.00;;;;;;10367605;28;20049;-55
2023/05/07 23:11:21;;;;;;;3.55;2.60;;;18.00;73.50;;;;;;10367455;28;20010;-55
2023/05/07 23:16:22;;;;;;;2.88;2.42;;;18.00;72.90;;;;;;10367809;28;20029;-53
2023/05/07 23:21:23;;;;;;;2.58;2.30;;;18.00;72.90;;;;;;10367072;28;20101;-55
2023/05/07 23:26:27;;;;;;;4.25;2.60;;;18.00;72.90;;;;;;10366934;28;20505;-53
2023/05/07 23:31:28;;;;;;;3.05;2.38;;;18.00;72.90;;;;;;10378097;28;20036;-53
2023/05/07 23:36:30;;;;;;;3.78;2.70;;;18.00;72.90;;;;;;10366418;28;20022;-55
2023/05/07 23:41:31;;;;;;;2.13;1.92;;;18.00;72.90;;;;;;10366320;28;20030;-53
2023/05/07 23:46:31;;;;;;;3.00;2.50;;;18.00;73.50;;;;;;10382673;28;20148;-53
2023/05/07 23:51:32;;;;;;;3.63;2.80;;;18.00;72.90;;;;;;10365781;28;20033;-54
2023/05/07 23:56:33;;;;;;;2.72;2.22;;;18.00;72.90;;;;;;10349338;28;20700;-54
